Time;durP1;ratioP1;P1;durP2;ratioP2;P2;SDS_P1;SDS_P2;PMS_P1;PMS_P2;Temp;Humidity;BMP_temperature;BMP_pressure;BME280_temperature;BME280_humidity;BME280_pressure;Samples;Min_cycle;Max_cycle;Signal;HPM_P1;HPM_P2
2023/09/25 00:02:01;;;;;;;2.95;0.50;;;17.60;87.60;;;;;;5039912;28;20037;-84
2023/09/25 00:04:28;;;;;;;2.80;0.60;;;17.60;87.40;;;;;;5043329;28;20040;-82
2023/09/25 00:06:54;;;;;;;1.27;0.30;;;17.70;87.10;;;;;;5045747;28;20465;-83
2023/09/25 00:09:20;;;;;;;2.15;0.50;;;17.70;87.10;;;;;;5053049;28;20040;-84
2023/09/25 00:11:45;;;;;;;1.20;0.45;;;17.70;86.90;;;;;;5051280;28;20029;-84
2023/09/25 00:14:11;;;;;;;2.95;0.55;;;17.70;86.80;;;;;;5045443;28;20489;-82
2023/09/25 00:16:38;;;;;;;2.42;0.50;;;17.70;86.80;;;;;;5041548;28;20135;-84
2023/09/25 00:19:04;;;;;;;3.05;1.00;;;17.80;86.30;;;;;;5053386;28;20052;-84
2023/09/25 00:21:30;;;;;;;11.50;0.95;;;17.60;85.60;;;;;;5043864;28;20052;-84
2023/09/25 00:23:56;;;;;;;1.40;0.68;;;17.50;86.40;;;;;;5052647;28;20131;-83
2023/09/25 00:26:21;;;;;;;2.10;0.40;;;17.50;86.60;;;;;;5051568;28;20730;-84
2023/09/25 00:28:47;;;;;;;1.98;0.50;;;17.50;86.30;;;;;;5035744;28;20087;-84
2023/09/25 00:31:13;;;;;;;1.63;0.50;;;17.40;87.00;;;;;;5037516;28;20496;-80
2023/09/25 00:33:38;;;;;;;1.95;0.63;;;17.40;87.20;;;;;;5043863;28;20052;-80
2023/09/25 00:36:05;;;;;;;1.52;0.50;;;17.50;87.20;;;;;;5036587;28;20068;-84
2023/09/25 00:38:31;;;;;;;1.73;0.70;;;17.50;86.90;;;;;;5051634;28;20398;-84
2023/09/25 00:40:57;;;;;;;1.60;0.60;;;17.50;86.80;;;;;;5053894;28;20025;-83
2023/09/25 00:43:23;;;;;;;1.20;0.55;;;17.50;86.60;;;;;;5045211;28;20259;-84
2023/09/25 00:45:49;;;;;;;3.17;0.80;;;17.50;86.40;;;;;;5053217;28;20481;-83
2023/09/25 00:48:26;;;;;;;2.05;0.60;;;17.50;86.70;;;;;;5040314;28;20071;-84
2023/09/25 00:50:57;;;;;;;2.03;0.50;;;17.50;86.90;;;;;;5036790;28;20385;-84
2023/09/25 00:53:24;;;;;;;3.13;0.52;;;17.50;86.80;;;;;;5048152;28;20033;-84
2023/09/25 00:55:51;;;;;;;4.03;0.52;;;17.50;86.80;;;;;;5053480;28;20052;-83
2023/09/25 00:58:17;;;;;;;1.17;0.30;;;17.50;87.00;;;;;;5052834;28;20063;-84
2023/09/25 01:00:43;;;;;;;2.10;0.43;;;17.50;87.00;;;;;;5049952;28;20025;-83
2023/09/25 01:03:08;;;;;;;1.63;0.50;;;17.50;87.10;;;;;;5051298;28;20031;-84
2023/09/25 01:05:37;;;;;;;1.83;0.43;;;17.50;86.70;;;;;;5053455;28;20037;-80
2023/09/25 01:08:03;;;;;;;1.83;0.50;;;17.50;86.70;;;;;;5046642;28;20052;-83
2023/09/25 01:10:29;;;;;;;2.88;0.47;;;17.50;87.30;;;;;;5049977;28;20033;-83
2023/09/25 01:12:54;;;;;;;0.95;0.38;;;17.50;86.50;;;;;;5040529;28;20087;-84
2023/09/25 01:15:21;;;;;;;1.42;0.60;;;17.50;86.30;;;;;;5052096;28;20088;-81
2023/09/25 01:17:47;;;;;;;1.27;0.40;;;17.40;85.50;;;;;;5042224;28;20129;-83
2023/09/25 01:20:15;;;;;;;2.70;0.43;;;17.40;86.10;;;;;;5047137;28;20107;-83
2023/09/25 01:22:42;;;;;;;2.20;0.50;;;17.40;86.40;;;;;;5042966;28;20046;-83
2023/09/25 01:25:11;;;;;;;2.35;0.47;;;17.40;86.60;;;;;;5052484;28;20127;-83
2023/09/25 01:27:37;;;;;;;1.35;0.30;;;17.40;86.60;;;;;;5044131;28;20080;-83
2023/09/25 01:30:05;;;;;;;2.78;0.85;;;17.40;86.80;;;;;;5042559;28;20386;-84
2023/09/25 01:32:31;;;;;;;2.08;0.50;;;17.40;86.50;;;;;;5044618;28;20044;-83
2023/09/25 01:34:57;;;;;;;2.15;0.60;;;17.30;85.80;;;;;;5034637;28;20032;-84
2023/09/25 01:37:23;;;;;;;1.08;0.50;;;17.30;86.10;;;;;;5039499;28;20094;-83
2023/09/25 01:39:48;;;;;;;1.60;0.60;;;17.30;86.30;;;;;;5050923;28;20525;-83
2023/09/25 01:42:14;;;;;;;1.08;0.40;;;17.30;86.70;;;;;;5046713;28;20030;-82
2023/09/25 01:44:40;;;;;;;1.20;0.32;;;17.30;86.50;;;;;;5035458;28;20494;-83
2023/09/25 01:47:05;;;;;;;1.52;0.57;;;17.30;86.40;;;;;;5047983;28;20041;-83
2023/09/25 01:49:32;;;;;;;3.30;0.68;;;17.30;86.60;;;;;;5052116;28;20150;-83
2023/09/25 01:51:58;;;;;;;1.67;0.50;;;17.30;86.50;;;;;;5042675;28;20025;-83
2023/09/25 01:54:24;;;;;;;1.63;0.40;;;17.30;86.60;;;;;;5052221;28;20111;-83
2023/09/25 01:56:49;;;;;;;1.40;0.50;;;17.20;86.50;;;;;;5044907;28;20033;-83
2023/09/25 01:59:15;;;;;;;2.45;0.60;;;17.20;87.00;;;;;;5049747;28;20041;-83
2023/09/25 02:01:41;;;;;;;1.60;0.55;;;17.30;87.10;;;;;;5050874;28;20111;-81
2023/09/25 02:04:07;;;;;;;2.00;0.60;;;17.20;86.60;;;;;;5047558;28;20035;-83
2023/09/25 02:06:33;;;;;;;1.60;0.50;;;17.20;86.70;;;;;;5051350;28;20025;-83
2023/09/25 02:08:59;;;;;;;1.20;0.50;;;17.10;86.90;;;;;;5046600;28;20338;-84
2023/09/25 02:11:25;;;;;;;2.08;0.50;;;17.20;87.00;;;;;;5051345;28;20032;-84
2023/09/25 02:13:51;;;;;;;1.00;0.40;;;17.10;86.70;;;;;;5038944;28;20063;-80
2023/09/25 02:16:18;;;;;;;2.25;0.75;;;17.10;86.70;;;;;;5050820;28;20025;-83
2023/09/25 02:18:43;;;;;;;1.67;0.43;;;17.20;86.70;;;;;;5040345;28;20041;-83
2023/09/25 02:21:09;;;;;;;1.77;0.60;;;17.20;86.90;;;;;;5033619;28;20033;-83
2023/09/25 02:23:35;;;;;;;3.25;0.80;;;17.20;86.60;;;;;;5031609;28;20049;-83
2023/09/25 02:26:01;;;;;;;1.60;0.57;;;17.10;86.70;;;;;;5042893;28;20110;-84
2023/09/25 02:28:26;;;;;;;1.38;0.40;;;17.10;86.70;;;;;;5035440;28;20037;-83
2023/09/25 02:30:52;;;;;;;2.08;0.68;;;17.10;86.80;;;;;;5033613;28;20474;-83
2023/09/25 02:33:18;;;;;;;2.45;0.57;;;17.10;86.90;;;;;;5045436;28;20041;-79
2023/09/25 02:35:43;;;;;;;2.05;0.40;;;17.00;86.70;;;;;;5050055;28;20099;-83
2023/09/25 02:38:09;;;;;;;1.95;0.65;;;16.90;86.60;;;;;;5037711;28;20041;-83
2023/09/25 02:40:35;;;;;;;1.52;0.70;;;16.80;87.00;;;;;;5034062;28;20137;-81
2023/09/25 02:43:00;;;;;;;2.80;0.80;;;16.80;87.00;;;;;;5041341;28;20068;-83
2023/09/25 02:45:26;;;;;;;2.85;0.90;;;16.80;87.00;;;;;;5035400;28;20522;-83
2023/09/25 02:47:52;;;;;;;3.15;0.80;;;16.70;87.00;;;;;;5041054;28;20116;-83
2023/09/25 02:50:17;;;;;;;2.33;0.60;;;16.70;86.90;;;;;;5050989;28;20040;-83
2023/09/25 02:52:46;;;;;;;1.95;0.63;;;16.60;87.00;;;;;;5043421;28;20064;-82
2023/09/25 02:55:12;;;;;;;2.55;1.10;;;16.60;88.20;;;;;;5050620;28;20079;-82
2023/09/25 02:57:37;;;;;;;2.35;0.60;;;16.60;87.40;;;;;;5045926;28;20430;-82
2023/09/25 03:00:10;;;;;;;2.97;0.60;;;16.60;87.50;;;;;;5031578;28;20025;-83
2023/09/25 03:02:36;;;;;;;1.30;0.57;;;16.50;87.40;;;;;;5034226;28;20049;-79
2023/09/25 03:05:04;;;;;;;2.97;0.70;;;16.50;87.60;;;;;;5033070;28;20025;-83
2023/09/25 03:07:30;;;;;;;2.15;0.55;;;16.50;87.60;;;;;;5033642;28;20037;-83
2023/09/25 03:09:56;;;;;;;2.05;0.60;;;16.50;87.90;;;;;;5031171;28;20444;-82
2023/09/25 03:12:22;;;;;;;1.60;0.77;;;16.40;87.90;;;;;;5034387;28;20040;-82
2023/09/25 03:14:47;;;;;;;2.60;0.85;;;16.30;87.90;;;;;;5038458;28;20063;-82
2023/09/25 03:17:13;;;;;;;1.45;0.40;;;16.30;88.40;;;;;;5032682;28;20061;-82
2023/09/25 03:19:38;;;;;;;2.85;0.80;;;16.20;88.50;;;;;;5048562;28;20045;-82
2023/09/25 03:22:04;;;;;;;1.88;0.70;;;16.20;88.40;;;;;;5045482;28;20026;-83
2023/09/25 03:24:30;;;;;;;1.90;0.65;;;16.30;88.60;;;;;;5048145;28;20086;-83
2023/09/25 03:26:56;;;;;;;1.90;0.68;;;16.30;88.50;;;;;;5044123;28;20025;-82
2023/09/25 03:29:22;;;;;;;2.42;0.80;;;16.40;88.60;;;;;;5044027;28;20053;-82
2023/09/25 03:31:47;;;;;;;1.55;0.60;;;16.40;87.90;;;;;;5034915;28;20084;-82
2023/09/25 03:34:13;;;;;;;2.47;0.80;;;16.40;88.00;;;;;;5040902;28;20032;-82
2023/09/25 03:36:39;;;;;;;2.90;0.70;;;16.50;88.70;;;;;;5049578;28;20037;-82
2023/09/25 03:39:04;;;;;;;1.73;0.50;;;16.50;88.60;;;;;;5038260;28;20128;-82
2023/09/25 03:41:30;;;;;;;1.80;0.47;;;16.50;88.50;;;;;;5033363;28;20041;-82
2023/09/25 03:43:55;;;;;;;1.60;0.50;;;16.50;88.60;;;;;;5043518;28;20030;-82
2023/09/25 03:46:21;;;;;;;1.98;0.80;;;16.50;88.50;;;;;;5041828;28;20029;-84
2023/09/25 03:48:47;;;;;;;1.65;0.50;;;16.30;88.10;;;;;;5041982;28;20044;-83
2023/09/25 03:51:13;;;;;;;0.93;0.40;;;16.30;88.90;;;;;;5040309;28;20037;-79
2023/09/25 03:53:38;;;;;;;1.40;0.40;;;16.40;89.20;;;;;;5039194;28;20025;-83
2023/09/25 03:56:04;;;;;;;1.75;0.80;;;16.50;89.30;;;;;;5048883;28;20389;-82
2023/09/25 03:58:30;;;;;;;2.60;0.95;;;16.50;88.60;;;;;;5042477;28;20124;-83
2023/09/25 04:00:57;;;;;;;1.27;0.75;;;16.40;88.60;;;;;;5033403;28;20120;-84
2023/09/25 04:03:23;;;;;;;2.85;0.70;;;16.30;89.10;;;;;;5034567;28;20021;-85
2023/09/25 04:05:48;;;;;;;1.88;0.65;;;16.30;89.30;;;;;;5045844;28;20029;-83
2023/09/25 04:08:14;;;;;;;1.65;0.68;;;16.20;89.60;;;;;;5035113;28;20029;-83
2023/09/25 04:10:39;;;;;;;1.83;0.70;;;16.20;89.60;;;;;;5043697;28;20041;-84
2023/09/25 04:13:05;;;;;;;1.63;0.50;;;16.20;89.90;;;;;;5048089;28;20033;-83
2023/09/25 04:15:31;;;;;;;2.42;0.70;;;16.20;89.70;;;;;;5039401;28;20033;-83
2023/09/25 04:17:57;;;;;;;2.25;1.00;;;16.20;89.60;;;;;;5031088;28;20064;-83
2023/09/25 04:20:26;;;;;;;2.22;0.63;;;16.20;90.00;;;;;;5043757;28;20034;-84
2023/09/25 04:22:58;;;;;;;1.67;0.88;;;16.20;89.90;;;;;;5016675;28;20131;-83
2023/09/25 04:25:24;;;;;;;1.20;0.50;;;16.20;89.70;;;;;;5036909;28;20429;-83
2023/09/25 04:27:52;;;;;;;1.40;0.50;;;16.20;89.80;;;;;;5032249;28;20123;-83
2023/09/25 04:30:19;;;;;;;2.45;0.90;;;16.30;90.00;;;;;;5034331;28;20030;-83
2023/09/25 04:32:47;;;;;;;2.25;0.73;;;16.20;89.60;;;;;;5031952;28;20040;-83
2023/09/25 04:35:15;;;;;;;2.47;0.68;;;16.20;89.80;;;;;;5033261;28;20112;-83
2023/09/25 04:37:41;;;;;;;1.88;0.90;;;16.20;90.00;;;;;;5039859;28;20056;-83
2023/09/25 04:40:22;;;;;;;1.52;0.73;;;16.20;90.00;;;;;;5046399;28;20362;-78
2023/09/25 04:42:49;;;;;;;1.83;0.85;;;16.20;89.70;;;;;;5048852;28;20481;-83
2023/09/25 04:45:18;;;;;;;2.22;0.55;;;16.20;89.80;;;;;;5038389;28;20492;-82
2023/09/25 04:47:47;;;;;;;4.53;0.88;;;16.20;89.90;;;;;;5052820;28;20079;-83
2023/09/25 04:50:13;;;;;;;1.52;0.60;;;16.10;89.90;;;;;;5050943;28;20473;-82
2023/09/25 04:52:44;;;;;;;1.85;0.80;;;16.10;90.10;;;;;;5050677;28;20397;-83
2023/09/25 04:55:11;;;;;;;1.45;0.80;;;16.20;90.10;;;;;;5040034;28;20046;-83
2023/09/25 04:57:43;;;;;;;3.25;0.95;;;16.20;90.20;;;;;;5017388;28;20474;-83
2023/09/25 05:00:28;;;;;;;1.83;0.77;;;16.10;90.10;;;;;;5047391;28;20103;-83
2023/09/25 05:02:55;;;;;;;2.47;0.73;;;16.10;90.10;;;;;;5045560;28;20025;-83
2023/09/25 05:05:22;;;;;;;2.75;0.60;;;16.10;90.10;;;;;;5039430;28;20049;-83
2023/09/25 05:07:49;;;;;;;1.65;0.70;;;16.10;90.10;;;;;;5047307;28;20446;-83
2023/09/25 05:10:19;;;;;;;3.50;1.08;;;16.10;90.20;;;;;;5055704;28;20426;-83
2023/09/25 05:12:45;;;;;;;1.45;0.40;;;16.00;90.30;;;;;;5040934;28;20099;-83
2023/09/25 05:15:12;;;;;;;1.40;0.50;;;16.10;90.30;;;;;;5027577;28;20082;-83
2023/09/25 05:17:39;;;;;;;0.90;0.38;;;16.20;90.50;;;;;;5051033;28;20075;-82
2023/09/25 05:20:15;;;;;;;1.88;0.57;;;16.30;90.40;;;;;;5046078;28;20029;-83
2023/09/25 05:22:43;;;;;;;2.97;0.73;;;16.30;90.30;;;;;;5050928;28;20094;-83
2023/09/25 05:25:10;;;;;;;1.95;0.70;;;16.30;89.50;;;;;;5042818;28;20342;-83
2023/09/25 05:27:41;;;;;;;1.83;0.60;;;16.20;89.70;;;;;;5039050;28;20033;-84
2023/09/25 05:30:12;;;;;;;2.63;0.80;;;16.10;90.00;;;;;;5040841;28;20029;-82
2023/09/25 05:32:43;;;;;;;1.50;0.55;;;16.10;90.10;;;;;;5045162;28;20033;-82
2023/09/25 05:35:09;;;;;;;3.50;1.02;;;16.10;90.30;;;;;;5033751;28;20037;-84
2023/09/25 05:37:36;;;;;;;2.85;0.50;;;16.20;90.20;;;;;;5051309;28;20040;-83
2023/09/25 05:40:03;;;;;;;2.88;0.73;;;16.20;90.20;;;;;;5052365;28;20045;-83
2023/09/25 05:42:29;;;;;;;1.67;0.68;;;16.20;90.10;;;;;;5039862;28;20036;-85
2023/09/25 05:44:55;;;;;;;2.75;0.40;;;16.30;90.30;;;;;;5034176;28;20033;-84
2023/09/25 05:47:20;;;;;;;2.55;1.10;;;16.30;90.20;;;;;;5048915;28;20067;-84
2023/09/25 05:49:46;;;;;;;1.23;0.60;;;16.30;90.30;;;;;;5049468;28;20049;-78
2023/09/25 05:52:11;;;;;;;2.22;0.63;;;16.30;90.20;;;;;;5034813;28;20029;-81
2023/09/25 05:54:37;;;;;;;2.45;0.60;;;16.30;90.00;;;;;;5034410;28;20037;-82
2023/09/25 05:57:05;;;;;;;3.53;0.75;;;16.40;90.10;;;;;;5048741;28;20033;-83
2023/09/25 05:59:33;;;;;;;1.25;0.45;;;16.40;90.30;;;;;;5041227;28;20041;-83
2023/09/25 06:01:58;;;;;;;1.95;0.70;;;16.50;90.30;;;;;;5044664;28;20113;-83
2023/09/25 06:04:24;;;;;;;1.17;0.50;;;16.50;90.00;;;;;;5051048;28;20529;-83
2023/09/25 06:06:49;;;;;;;2.72;0.88;;;16.40;90.00;;;;;;5038074;28;20100;-84
2023/09/25 06:09:15;;;;;;;6.15;0.50;;;16.40;90.10;;;;;;5040553;28;20029;-82
2023/09/25 06:11:42;;;;;;;1.63;0.32;;;16.40;90.10;;;;;;5046774;28;20029;-78
2023/09/25 06:14:07;;;;;;;1.33;0.40;;;16.50;90.80;;;;;;5039328;28;20033;-79
2023/09/25 06:16:33;;;;;;;1.92;0.40;;;16.60;91.10;;;;;;5034735;28;20343;-81
2023/09/25 06:18:59;;;;;;;2.45;0.50;;;16.70;91.40;;;;;;5034634;28;20037;-81
2023/09/25 06:21:25;;;;;;;2.35;0.65;;;16.70;91.00;;;;;;5039510;28;20492;-78
2023/09/25 06:23:52;;;;;;;2.45;0.60;;;16.80;90.90;;;;;;5051817;28;20115;-80
2023/09/25 06:26:18;;;;;;;2.50;0.52;;;16.80;90.80;;;;;;5045311;28;20087;-81
2023/09/25 06:28:43;;;;;;;2.35;0.70;;;16.90;90.60;;;;;;5041681;28;20033;-81
2023/09/25 06:31:12;;;;;;;2.72;0.60;;;16.90;90.40;;;;;;5040150;28;20029;-80
2023/09/25 06:33:37;;;;;;;4.82;0.50;;;16.90;90.60;;;;;;5050871;28;20025;-82
2023/09/25 06:36:03;;;;;;;4.20;0.52;;;17.00;90.70;;;;;;5048074;28;20087;-80
2023/09/25 06:38:29;;;;;;;2.95;0.70;;;17.00;90.50;;;;;;5035595;28;20309;-75
2023/09/25 06:40:55;;;;;;;4.93;0.77;;;17.00;90.50;;;;;;5039193;28;20043;-81
2023/09/25 06:43:21;;;;;;;1.50;0.60;;;17.00;90.50;;;;;;5040002;28;20032;-80
2023/09/25 06:45:47;;;;;;;1.40;0.43;;;17.00;90.80;;;;;;5051275;28;20136;-81
2023/09/25 06:48:12;;;;;;;1.83;0.85;;;17.10;91.10;;;;;;5026020;28;20109;-82
2023/09/25 06:50:38;;;;;;;1.67;0.40;;;17.20;91.30;;;;;;5036572;28;20029;-83
2023/09/25 06:53:04;;;;;;;2.33;0.65;;;17.30;90.70;;;;;;5036792;28;20040;-83
2023/09/25 06:55:30;;;;;;;1.38;0.52;;;17.40;90.70;;;;;;5040625;28;20030;-84
2023/09/25 06:57:56;;;;;;;1.45;0.73;;;17.40;90.80;;;;;;5040430;28;20030;-83
2023/09/25 07:00:23;;;;;;;5.35;1.13;;;17.50;90.60;;;;;;5035622;28;20025;-83
2023/09/25 07:02:50;;;;;;;2.65;0.40;;;17.50;89.70;;;;;;5047522;28;20517;-82
2023/09/25 07:05:16;;;;;;;1.33;0.70;;;17.50;90.30;;;;;;5045285;28;20021;-83
2023/09/25 07:07:42;;;;;;;2.20;1.00;;;17.70;90.10;;;;;;5038584;28;20123;-83
2023/09/25 07:10:09;;;;;;;1.65;0.40;;;17.70;88.80;;;;;;5041457;28;20025;-80
2023/09/25 07:12:35;;;;;;;2.13;0.70;;;17.70;89.80;;;;;;5044806;28;20029;-84
2023/09/25 07:15:02;;;;;;;1.85;0.60;;;17.70;89.30;;;;;;5033982;28;20033;-80
2023/09/25 07:17:29;;;;;;;1.58;0.60;;;17.80;90.00;;;;;;5031793;28;20038;-84
2023/09/25 07:19:55;;;;;;;3.03;0.90;;;17.80;89.30;;;;;;5032756;28;20030;-84
2023/09/25 07:22:23;;;;;;;3.10;0.80;;;17.90;89.10;;;;;;5032951;28;20021;-84
2023/09/25 07:24:49;;;;;;;1.95;0.50;;;17.80;88.40;;;;;;5032979;28;20056;-83
2023/09/25 07:27:15;;;;;;;1.77;0.73;;;17.80;88.90;;;;;;5032976;28;20101;-82
2023/09/25 07:29:48;;;;;;;4.43;0.80;;;17.80;89.00;;;;;;5036581;28;20044;-84
2023/09/25 07:32:15;;;;;;;1.60;0.68;;;17.80;88.80;;;;;;5013293;28;20451;-80
2023/09/25 07:34:42;;;;;;;1.00;0.50;;;17.90;89.00;;;;;;5023908;28;20207;-80
2023/09/25 07:37:08;;;;;;;1.02;0.50;;;17.90;88.80;;;;;;5031842;28;20098;-82
2023/09/25 07:39:38;;;;;;;2.55;0.50;;;17.90;89.20;;;;;;5030361;28;20132;-81
2023/09/25 07:42:04;;;;;;;2.08;0.50;;;18.00;89.00;;;;;;5030129;28;20138;-79
2023/09/25 07:44:33;;;;;;;3.03;0.60;;;18.00;89.00;;;;;;5030323;28;20037;-82
2023/09/25 07:47:00;;;;;;;1.13;0.52;;;18.00;88.90;;;;;;5032427;28;20061;-81
2023/09/25 07:49:29;;;;;;;1.33;0.52;;;18.10;89.30;;;;;;5032621;28;20025;-80
2023/09/25 07:51:56;;;;;;;1.38;0.68;;;18.10;88.00;;;;;;5032447;28;20026;-81
2023/09/25 07:54:23;;;;;;;1.80;0.68;;;18.10;88.40;;;;;;5032485;28;20026;-83
2023/09/25 07:56:49;;;;;;;3.22;0.50;;;18.20;88.50;;;;;;5030723;28;20040;-83
2023/09/25 07:59:14;;;;;;;2.22;0.70;;;18.20;88.70;;;;;;5032394;28;20466;-80
2023/09/25 08:01:42;;;;;;;2.53;0.60;;;18.30;87.80;;;;;;5031295;28;20135;-83
2023/09/25 08:04:07;;;;;;;1.52;0.55;;;18.40;87.90;;;;;;5032371;28;20026;-78
2023/09/25 08:06:33;;;;;;;1.40;0.47;;;18.40;88.10;;;;;;5031428;28;20065;-83
2023/09/25 08:08:59;;;;;;;1.70;0.70;;;18.40;88.20;;;;;;5033956;28;20037;-84
2023/09/25 08:11:26;;;;;;;1.75;0.50;;;18.40;88.30;;;;;;5017008;28;20026;-89
2023/09/25 08:13:55;;;;;;;1.02;0.57;;;18.50;87.90;;;;;;5036864;28;20328;-86
2023/09/25 08:16:23;;;;;;;1.92;0.50;;;18.70;87.90;;;;;;5032328;28;20459;-81
2023/09/25 08:18:49;;;;;;;1.13;0.50;;;18.80;87.40;;;;;;5035908;28;20039;-81
2023/09/25 08:21:16;;;;;;;1.80;0.68;;;18.90;87.90;;;;;;5041728;28;20052;-83
2023/09/25 08:23:42;;;;;;;2.38;0.73;;;19.00;88.20;;;;;;5046453;28;20478;-82
2023/09/25 08:26:08;;;;;;;2.35;0.70;;;19.00;87.60;;;;;;5036604;28;20116;-82
2023/09/25 08:28:34;;;;;;;2.10;0.75;;;19.10;87.00;;;;;;5035377;28;20093;-78
2023/09/25 08:31:00;;;;;;;2.45;0.90;;;19.10;86.60;;;;;;5034433;28;20041;-78
2023/09/25 08:33:26;;;;;;;1.70;0.70;;;19.20;86.60;;;;;;5035889;28;20064;-79
2023/09/25 08:35:52;;;;;;;5.55;0.95;;;19.30;86.80;;;;;;5036276;28;20041;-78
2023/09/25 08:38:18;;;;;;;2.03;0.60;;;19.30;86.30;;;;;;5036939;28;20140;-78
2023/09/25 08:40:48;;;;;;;1.27;0.50;;;19.40;86.00;;;;;;5034451;28;20032;-77
2023/09/25 08:43:14;;;;;;;2.33;0.63;;;19.40;86.10;;;;;;5038465;28;20433;-77
2023/09/25 08:45:43;;;;;;;2.60;0.60;;;19.40;85.60;;;;;;5045662;28;20038;-78
2023/09/25 08:48:16;;;;;;;1.27;0.63;;;19.50;84.20;;;;;;5019285;28;20040;-79
2023/09/25 08:50:44;;;;;;;4.72;0.90;;;19.50;83.20;;;;;;5046779;28;20041;-77
2023/09/25 08:53:10;;;;;;;1.75;0.50;;;19.50;84.40;;;;;;5042369;28;20072;-79
2023/09/25 08:55:36;;;;;;;2.38;0.57;;;19.60;82.60;;;;;;5035376;28;20509;-79
2023/09/25 08:58:03;;;;;;;2.55;0.75;;;19.70;83.20;;;;;;5044275;28;20055;-75
2023/09/25 09:00:30;;;;;;;3.75;1.00;;;19.80;83.80;;;;;;5034176;28;20035;-77
2023/09/25 09:02:56;;;;;;;1.75;0.65;;;19.80;81.80;;;;;;5045510;28;20033;-77
2023/09/25 09:05:23;;;;;;;1.42;0.60;;;19.90;80.90;;;;;;5038842;28;20025;-79
2023/09/25 09:07:56;;;;;;;3.33;0.57;;;20.00;80.60;;;;;;5033903;28;20041;-79
2023/09/25 09:10:22;;;;;;;2.00;0.70;;;20.10;80.20;;;;;;5040243;28;20031;-79
2023/09/25 09:12:55;;;;;;;2.47;0.80;;;20.10;79.30;;;;;;5034201;28;20128;-81
2023/09/25 09:15:28;;;;;;;1.42;0.50;;;20.20;80.00;;;;;;5033829;28;20421;-78
2023/09/25 09:17:57;;;;;;;1.75;0.70;;;20.30;80.80;;;;;;5033743;28;20040;-79
2023/09/25 09:20:37;;;;;;;3.90;0.60;;;20.40;80.10;;;;;;5035461;28;20119;-80
2023/09/25 09:23:03;;;;;;;1.88;0.50;;;20.50;81.30;;;;;;5034497;28;20071;-80
2023/09/25 09:25:33;;;;;;;2.05;0.73;;;20.60;80.70;;;;;;5033115;28;20034;-81
2023/09/25 09:27:59;;;;;;;1.05;0.55;;;20.60;78.00;;;;;;5050379;28;20044;-80
2023/09/25 09:30:28;;;;;;;1.25;0.57;;;20.60;78.90;;;;;;5049285;28;20021;-80
2023/09/25 09:32:54;;;;;;;2.88;0.80;;;20.60;80.00;;;;;;5037125;28;20030;-77
2023/09/25 09:35:23;;;;;;;3.13;0.68;;;20.60;78.10;;;;;;5042243;28;20033;-78
2023/09/25 09:37:52;;;;;;;2.05;0.80;;;20.70;78.40;;;;;;5043015;28;20040;-79
2023/09/25 09:40:18;;;;;;;2.38;0.70;;;20.80;78.30;;;;;;5047695;28;20029;-80
2023/09/25 09:42:47;;;;;;;2.70;0.75;;;20.80;79.00;;;;;;5041241;28;20021;-79
2023/09/25 09:45:13;;;;;;;2.25;0.77;;;20.80;78.90;;;;;;5041785;28;20029;-79
2023/09/25 09:47:46;;;;;;;2.65;0.80;;;20.90;78.70;;;;;;5050715;28;20362;-78
2023/09/25 09:50:13;;;;;;;1.90;0.70;;;21.00;79.60;;;;;;5039226;28;20030;-80
2023/09/25 09:52:39;;;;;;;2.15;0.50;;;21.10;78.70;;;;;;5047710;28;20125;-80
2023/09/25 09:55:07;;;;;;;2.70;0.50;;;21.20;79.00;;;;;;5034156;28;20104;-81
2023/09/25 09:57:34;;;;;;;3.35;1.08;;;21.30;77.00;;;;;;5031811;28;20053;-79
2023/09/25 09:59:59;;;;;;;1.80;0.68;;;21.40;75.80;;;;;;5045913;28;20124;-80
2023/09/25 10:02:28;;;;;;;3.03;1.00;;;21.40;76.20;;;;;;5036656;28;20124;-79
2023/09/25 10:04:55;;;;;;;1.80;0.60;;;21.40;76.70;;;;;;5041949;28;20051;-80
2023/09/25 10:07:21;;;;;;;1.80;0.70;;;21.40;76.00;;;;;;5045228;28;20047;-78
2023/09/25 10:10:06;;;;;;;1.83;0.60;;;21.40;75.80;;;;;;5042186;28;20032;-79
2023/09/25 10:12:50;;;;;;;1.95;0.50;;;21.50;75.90;;;;;;5038966;28;20460;-81
2023/09/25 10:15:25;;;;;;;2.75;0.70;;;21.50;76.20;;;;;;5041556;28;20028;-79
2023/09/25 10:17:52;;;;;;;3.92;0.93;;;21.50;76.10;;;;;;5042122;28;20047;-79
2023/09/25 10:20:32;;;;;;;1.65;0.85;;;21.60;76.00;;;;;;5041160;28;20466;-80
2023/09/25 10:23:09;;;;;;;2.45;0.82;;;21.70;76.90;;;;;;5038236;28;20060;-81
2023/09/25 10:25:55;;;;;;;2.10;1.00;;;21.70;76.70;;;;;;5051628;28;20110;-76
2023/09/25 10:28:22;;;;;;;1.88;0.70;;;21.70;76.40;;;;;;5050090;28;20029;-81
2023/09/25 10:30:49;;;;;;;3.22;0.70;;;21.80;75.90;;;;;;5049388;28;20097;-80
2023/09/25 10:33:20;;;;;;;4.55;1.42;;;21.80;78.10;;;;;;5049789;28;20036;-80
2023/09/25 10:35:49;;;;;;;2.70;1.30;;;21.90;79.40;;;;;;5037966;28;20037;-80
2023/09/25 10:38:21;;;;;;;2.15;0.98;;;21.90;77.40;;;;;;5031568;28;20037;-79
2023/09/25 10:40:50;;;;;;;4.05;0.85;;;22.00;76.80;;;;;;5035083;28;20478;-79
2023/09/25 10:43:22;;;;;;;2.15;1.00;;;22.10;77.20;;;;;;5032397;28;20079;-79
2023/09/25 10:45:48;;;;;;;3.45;1.00;;;22.20;76.30;;;;;;5040463;28;20025;-79
2023/09/25 10:48:14;;;;;;;3.13;1.02;;;22.30;72.90;;;;;;5032586;28;20030;-79
2023/09/25 10:50:43;;;;;;;2.45;0.90;;;22.30;72.80;;;;;;5034345;28;20394;-81
2023/09/25 10:53:13;;;;;;;2.22;0.77;;;22.40;73.80;;;;;;5034190;28;20083;-79
2023/09/25 10:55:39;;;;;;;2.72;0.93;;;22.40;73.60;;;;;;5046271;28;20029;-82
2023/09/25 10:58:06;;;;;;;1.70;0.88;;;22.50;73.90;;;;;;5035928;28;20472;-79
2023/09/25 11:00:34;;;;;;;1.27;0.65;;;22.40;73.60;;;;;;5050641;28;20040;-81
2023/09/25 11:03:01;;;;;;;2.85;0.85;;;22.50;75.00;;;;;;5037624;28;20052;-79
2023/09/25 11:05:30;;;;;;;3.15;1.17;;;22.50;76.70;;;;;;5033952;28;20025;-80
2023/09/25 11:07:56;;;;;;;3.40;1.20;;;22.60;74.80;;;;;;5044576;28;20053;-81
2023/09/25 11:10:34;;;;;;;2.03;1.00;;;22.60;73.20;;;;;;5043576;28;20100;-80
2023/09/25 11:13:00;;;;;;;1.52;0.90;;;22.50;73.90;;;;;;5037601;28;20437;-79
2023/09/25 11:15:37;;;;;;;1.90;0.93;;;22.60;73.70;;;;;;5049676;28;20056;-82
2023/09/25 11:18:03;;;;;;;4.63;1.10;;;22.60;73.40;;;;;;5038925;28;20026;-79
2023/09/25 11:20:32;;;;;;;5.18;1.23;;;22.50;73.40;;;;;;5033770;28;20108;-80
2023/09/25 11:23:30;;;;;;;3.17;1.23;;;22.60;73.00;;;;;;5040372;28;20052;-78
2023/09/25 11:25:56;;;;;;;2.05;0.85;;;22.50;72.40;;;;;;5043511;28;20033;-79
2023/09/25 11:28:25;;;;;;;3.45;1.02;;;22.50;72.90;;;;;;5045587;28;20039;-79
2023/09/25 11:30:51;;;;;;;4.28;1.13;;;22.60;75.40;;;;;;5032901;28;20031;-80
2023/09/25 11:33:22;;;;;;;2.28;0.80;;;22.60;74.50;;;;;;5043256;28;20124;-81
2023/09/25 11:35:51;;;;;;;2.03;1.00;;;22.70;74.30;;;;;;5044319;28;20030;-79
2023/09/25 11:38:21;;;;;;;2.53;0.90;;;22.70;73.60;;;;;;5042444;28;20728;-80
2023/09/25 11:40:47;;;;;;;2.65;1.25;;;22.90;73.10;;;;;;5031457;28;20029;-79
2023/09/25 11:43:13;;;;;;;2.58;0.80;;;22.90;72.10;;;;;;5042198;28;20031;-81
2023/09/25 11:45:40;;;;;;;3.00;0.85;;;23.00;72.60;;;;;;5040583;28;20029;-81
2023/09/25 11:48:08;;;;;;;2.13;0.88;;;23.10;73.90;;;;;;5046543;28;20025;-79
2023/09/25 11:50:34;;;;;;;2.50;1.15;;;23.10;73.70;;;;;;5053404;28;20029;-80
2023/09/25 11:53:00;;;;;;;2.70;1.20;;;23.20;72.80;;;;;;5054946;28;20037;-79
2023/09/25 11:55:26;;;;;;;2.75;0.90;;;23.30;72.70;;;;;;5056408;28;20036;-82
2023/09/25 11:57:52;;;;;;;3.28;1.10;;;23.30;73.50;;;;;;5046351;28;20025;-81
2023/09/25 12:00:23;;;;;;;7.70;1.20;;;23.40;73.10;;;;;;5036456;28;20036;-79
2023/09/25 12:02:49;;;;;;;3.90;1.13;;;23.50;72.50;;;;;;5036537;28;20394;-80
2023/09/25 12:05:16;;;;;;;1.98;0.70;;;23.50;71.70;;;;;;5036511;28;20029;-80
2023/09/25 12:07:43;;;;;;;2.58;1.10;;;23.40;72.70;;;;;;5036075;28;20470;-80
2023/09/25 12:10:12;;;;;;;4.03;1.50;;;23.40;72.70;;;;;;5036427;28;20044;-78
2023/09/25 12:12:41;;;;;;;4.28;1.10;;;23.40;72.90;;;;;;5034772;28;20037;-78
2023/09/25 12:15:07;;;;;;;2.58;0.98;;;23.50;71.90;;;;;;5036202;28;20025;-79
2023/09/25 12:17:34;;;;;;;2.58;1.10;;;23.60;72.10;;;;;;5036416;28;20026;-79
2023/09/25 12:20:12;;;;;;;2.80;0.90;;;23.60;72.10;;;;;;5034611;28;20042;-80
2023/09/25 12:22:40;;;;;;;3.35;0.77;;;23.70;72.60;;;;;;5035979;28;20030;-78
2023/09/25 12:25:09;;;;;;;2.97;0.60;;;23.60;72.60;;;;;;5036273;28;20030;-80
2023/09/25 12:27:44;;;;;;;4.60;1.20;;;23.60;73.80;;;;;;5035991;28;20490;-80
2023/09/25 12:30:15;;;;;;;3.15;1.42;;;23.70;74.10;;;;;;5034867;28;20132;-79
2023/09/25 12:32:43;;;;;;;2.42;1.00;;;23.80;72.60;;;;;;5056001;28;20024;-79
2023/09/25 12:35:11;;;;;;;2.03;0.98;;;23.80;71.50;;;;;;5038230;28;20033;-80
2023/09/25 12:37:36;;;;;;;3.35;1.25;;;23.90;71.70;;;;;;5035635;28;20033;-83
2023/09/25 12:40:03;;;;;;;5.35;1.63;;;23.90;72.60;;;;;;5034304;28;20037;-79
2023/09/25 12:42:29;;;;;;;2.58;0.98;;;23.90;71.40;;;;;;5017873;28;20363;-80
2023/09/25 12:44:55;;;;;;;2.13;1.10;;;24.00;71.60;;;;;;5034456;28;20057;-81
2023/09/25 12:47:22;;;;;;;2.00;0.82;;;24.00;73.00;;;;;;5035854;28;20072;-78
2023/09/25 12:49:48;;;;;;;4.93;0.98;;;23.90;72.50;;;;;;5035709;28;20030;-79